sensor_id;sensor_type;location;lat;lon;timestamp;pressure;altitude;pressure_sealevel;temperature;humidity
76424;BME280;65257;52.104;4.268;2022-12-07T00:01:23;101889.56;;;7.39;74.48
76424;BME280;65257;52.104;4.268;2022-12-07T00:03:56;101884.28;;;7.36;74.17
76424;BME280;65257;52.104;4.268;2022-12-07T00:06:26;101880.75;;;7.34;72.49
76424;BME280;65257;52.104;4.268;2022-12-07T00:08:55;101877.22;;;7.32;71.21
76424;BME280;65257;52.104;4.268;2022-12-07T00:11:22;101885.66;;;7.31;72.71
76424;BME280;65257;52.104;4.268;2022-12-07T00:14:00;101878.41;;;7.24;73.88
76424;BME280;65257;52.104;4.268;2022-12-07T00:16:35;101875.47;;;7.31;71.94
76424;BME280;65257;52.104;4.268;2022-12-07T00:19:02;101877.81;;;7.28;72.45
76424;BME280;65257;52.104;4.268;2022-12-07T00:21:30;101882.31;;;7.32;70.27
76424;BME280;65257;52.104;4.268;2022-12-07T00:23:58;101884.06;;;7.33;70.75
76424;BME280;65257;52.104;4.268;2022-12-07T00:26:26;101861.94;;;7.32;73.77
76424;BME280;65257;52.104;4.268;2022-12-07T00:28:54;101868.81;;;7.33;72.51
76424;BME280;65257;52.104;4.268;2022-12-07T00:31:26;101861.94;;;7.32;72.16
76424;BME280;65257;52.104;4.268;2022-12-07T00:33:51;101866.06;;;7.30;70.17
76424;BME280;65257;52.104;4.268;2022-12-07T00:36:22;101867.22;;;7.35;70.82
76424;BME280;65257;52.104;4.268;2022-12-07T00:38:48;101861.09;;;7.31;70.68
76424;BME280;65257;52.104;4.268;2022-12-07T00:41:19;101869.78;;;7.35;71.82
76424;BME280;65257;52.104;4.268;2022-12-07T00:43:53;101871.63;;;7.37;70.92
76424;BME280;65257;52.104;4.268;2022-12-07T00:46:19;101867.56;;;7.39;71.56
76424;BME280;65257;52.104;4.268;2022-12-07T00:48:46;101864.13;;;7.39;71.89
76424;BME280;65257;52.104;4.268;2022-12-07T00:51:13;101867.22;;;7.48;72.92
76424;BME280;65257;52.104;4.268;2022-12-07T00:53:40;101879.75;;;7.32;74.79
76424;BME280;65257;52.104;4.268;2022-12-07T00:56:48;101876.63;;;7.23;76.10
76424;BME280;65257;52.104;4.268;2022-12-07T00:58:58;101873.38;;;7.12;76.34
76424;BME280;65257;52.104;4.268;2022-12-07T01:01:29;101868.78;;;7.07;75.60
76424;BME280;65257;52.104;4.268;2022-12-07T01:03:55;101868.56;;;7.04;76.10
76424;BME280;65257;52.104;4.268;2022-12-07T01:06:25;101861.94;;;7.06;75.44
76424;BME280;65257;52.104;4.268;2022-12-07T01:08:53;101863.69;;;7.07;75.60
76424;BME280;65257;52.104;4.268;2022-12-07T01:11:22;101861.25;;;7.08;76.44
76424;BME280;65257;52.104;4.268;2022-12-07T01:13:50;101868.22;;;7.24;75.55
76424;BME280;65257;52.104;4.268;2022-12-07T01:16:16;101855.69;;;7.40;75.29
76424;BME280;65257;52.104;4.268;2022-12-07T01:18:45;101863.13;;;7.50;74.13
76424;BME280;65257;52.104;4.268;2022-12-07T01:21:15;101876.25;;;7.56;74.03
76424;BME280;65257;52.104;4.268;2022-12-07T01:23:42;101870.25;;;7.42;77.15
76424;BME280;65257;52.104;4.268;2022-12-07T01:26:16;101873.69;;;7.30;75.92
76424;BME280;65257;52.104;4.268;2022-12-07T01:28:42;101869.75;;;7.22;77.79
76424;BME280;65257;52.104;4.268;2022-12-07T01:31:14;101861.63;;;7.14;76.61
76424;BME280;65257;52.104;4.268;2022-12-07T01:33:42;101863.09;;;6.98;74.06
76424;BME280;65257;52.104;4.268;2022-12-07T01:38:40;101875.06;;;6.74;72.81
76424;BME280;65257;52.104;4.268;2022-12-07T01:41:06;101873.63;;;6.77;73.64
76424;BME280;65257;52.104;4.268;2022-12-07T01:43:33;101875.16;;;6.75;74.98
76424;BME280;65257;52.104;4.268;2022-12-07T01:45:59;101871.63;;;6.73;77.89
76424;BME280;65257;52.104;4.268;2022-12-07T01:48:50;101865.03;;;6.88;75.60
76424;BME280;65257;52.104;4.268;2022-12-07T01:51:16;101873.16;;;6.96;77.06
76424;BME280;65257;52.104;4.268;2022-12-07T01:53:45;101849.56;;;6.99;77.57
76424;BME280;65257;52.104;4.268;2022-12-07T01:56:14;101845.78;;;7.05;76.53
76424;BME280;65257;52.104;4.268;2022-12-07T01:58:42;101845.31;;;7.11;75.47
76424;BME280;65257;52.104;4.268;2022-12-07T02:01:13;101838.66;;;7.13;76.68
76424;BME280;65257;52.104;4.268;2022-12-07T02:03:41;101847.06;;;7.12;73.82
76424;BME280;65257;52.104;4.268;2022-12-07T02:06:08;101835.13;;;7.11;72.67
76424;BME280;65257;52.104;4.268;2022-12-07T02:08:34;101841.78;;;7.09;73.45
76424;BME280;65257;52.104;4.268;2022-12-07T02:11:05;101842.56;;;7.08;72.96
76424;BME280;65257;52.104;4.268;2022-12-07T02:13:35;101839.03;;;7.06;71.04
76424;BME280;65257;52.104;4.268;2022-12-07T02:18:59;101839.41;;;6.99;73.09
76424;BME280;65257;52.104;4.268;2022-12-07T02:21:57;101837.06;;;7.02;70.40
76424;BME280;65257;52.104;4.268;2022-12-07T02:27:28;101825.16;;;7.14;69.57
76424;BME280;65257;52.104;4.268;2022-12-07T02:30:31;101837.47;;;7.21;72.00
76424;BME280;65257;52.104;4.268;2022-12-07T02:36:46;101859.09;;;6.63;78.18
76424;BME280;65257;52.104;4.268;2022-12-07T02:39:20;101857.59;;;6.54;77.09
76424;BME280;65257;52.104;4.268;2022-12-07T02:41:52;101859.91;;;6.62;75.71
76424;BME280;65257;52.104;4.268;2022-12-07T02:44:23;101842.28;;;6.65;74.32
76424;BME280;65257;52.104;4.268;2022-12-07T02:47:10;101844.63;;;6.62;74.17
76424;BME280;65257;52.104;4.268;2022-12-07T02:52:32;101843.47;;;6.70;73.13
76424;BME280;65257;52.104;4.268;2022-12-07T02:55:00;101844.25;;;6.69;71.96
76424;BME280;65257;52.104;4.268;2022-12-07T03:01:11;101844.44;;;6.59;74.09
76424;BME280;65257;52.104;4.268;2022-12-07T03:06:49;101842.94;;;7.01;77.34
76424;BME280;65257;52.104;4.268;2022-12-07T03:09:30;101847.34;;;7.03;76.98
76424;BME280;65257;52.104;4.268;2022-12-07T03:12:08;101838.25;;;7.07;76.14
76424;BME280;65257;52.104;4.268;2022-12-07T03:14:47;101835.50;;;7.04;75.33
76424;BME280;65257;52.104;4.268;2022-12-07T03:17:25;101834.53;;;7.02;74.33
76424;BME280;65257;52.104;4.268;2022-12-07T03:19:56;101837.66;;;6.98;73.24
76424;BME280;65257;52.104;4.268;2022-12-07T03:22:23;101841.78;;;6.96;75.62
76424;BME280;65257;52.104;4.268;2022-12-07T03:25:24;101836.09;;;7.00;73.68
76424;BME280;65257;52.104;4.268;2022-12-07T03:28:14;101832.38;;;7.08;76.51
76424;BME280;65257;52.104;4.268;2022-12-07T03:31:17;101819.88;;;7.11;73.69
76424;BME280;65257;52.104;4.268;2022-12-07T03:34:09;101829.63;;;7.05;72.62
76424;BME280;65257;52.104;4.268;2022-12-07T03:37:05;101832.78;;;7.01;72.44
76424;BME280;65257;52.104;4.268;2022-12-07T03:40:15;101824.13;;;6.99;72.95
76424;BME280;65257;52.104;4.268;2022-12-07T03:42:43;101819.06;;;6.99;74.22
76424;BME280;65257;52.104;4.268;2022-12-07T03:45:09;101825.16;;;7.01;75.25
76424;BME280;65257;52.104;4.268;2022-12-07T03:48:20;101817.50;;;7.01;76.24
76424;BME280;65257;52.104;4.268;2022-12-07T03:50:57;101812.78;;;7.07;71.19
76424;BME280;65257;52.104;4.268;2022-12-07T03:53:43;101812.91;;;7.08;70.71
76424;BME280;65257;52.104;4.268;2022-12-07T03:56:14;101816.34;;;7.09;69.24
76424;BME280;65257;52.104;4.268;2022-12-07T03:58:41;101812.13;;;7.09;71.80
76424;BME280;65257;52.104;4.268;2022-12-07T04:01:07;101811.25;;;7.09;73.50
76424;BME280;65257;52.104;4.268;2022-12-07T04:03:32;101813.69;;;7.07;72.06
76424;BME280;65257;52.104;4.268;2022-12-07T04:05:59;101809.28;;;7.05;71.58
76424;BME280;65257;52.104;4.268;2022-12-07T04:08:24;101815.94;;;7.03;70.26
76424;BME280;65257;52.104;4.268;2022-12-07T04:10:51;101812.59;;;7.04;70.91
76424;BME280;65257;52.104;4.268;2022-12-07T04:13:22;101798.13;;;7.03;69.59
76424;BME280;65257;52.104;4.268;2022-12-07T04:15:47;101800.69;;;7.03;70.72
76424;BME280;65257;52.104;4.268;2022-12-07T04:18:13;101803.03;;;7.00;70.81
76424;BME280;65257;52.104;4.268;2022-12-07T04:20:38;101808.69;;;6.96;71.53
76424;BME280;65257;52.104;4.268;2022-12-07T04:23:04;101806.16;;;6.96;71.42
76424;BME280;65257;52.104;4.268;2022-12-07T04:25:32;101808.03;;;6.98;72.81
76424;BME280;65257;52.104;4.268;2022-12-07T04:27:57;101801.16;;;6.97;72.04
76424;BME280;65257;52.104;4.268;2022-12-07T04:30:22;101799.22;;;6.93;73.19
76424;BME280;65257;52.104;4.268;2022-12-07T04:32:48;101795.38;;;6.86;73.26
76424;BME280;65257;52.104;4.268;2022-12-07T04:35:16;101794.59;;;6.87;73.78
76424;BME280;65257;52.104;4.268;2022-12-07T04:37:42;101795.97;;;6.82;72.04
76424;BME280;65257;52.104;4.268;2022-12-07T04:40:11;101794.00;;;6.78;73.75
76424;BME280;65257;52.104;4.268;2022-12-07T04:42:38;101795.56;;;6.76;73.40
76424;BME280;65257;52.104;4.268;2022-12-07T04:45:07;101794.19;;;6.81;73.13
76424;BME280;65257;52.104;4.268;2022-12-07T04:47:33;101789.09;;;6.81;73.58
76424;BME280;65257;52.104;4.268;2022-12-07T04:49:58;101786.00;;;6.85;76.03
76424;BME280;65257;52.104;4.268;2022-12-07T04:52:23;101786.97;;;7.01;72.50
76424;BME280;65257;52.104;4.268;2022-12-07T04:54:49;101785.81;;;7.09;72.58
76424;BME280;65257;52.104;4.268;2022-12-07T04:57:17;101782.88;;;7.16;70.49
76424;BME280;65257;52.104;4.268;2022-12-07T04:59:42;101784.81;;;7.20;69.51
76424;BME280;65257;52.104;4.268;2022-12-07T05:02:11;101789.69;;;7.17;70.09
76424;BME280;65257;52.104;4.268;2022-12-07T05:04:36;101780.41;;;7.17;70.80
76424;BME280;65257;52.104;4.268;2022-12-07T05:07:01;101782.88;;;7.16;70.84
76424;BME280;65257;52.104;4.268;2022-12-07T05:09:30;101774.06;;;7.11;71.53
76424;BME280;65257;52.104;4.268;2022-12-07T05:11:55;101773.88;;;7.08;72.99
76424;BME280;65257;52.104;4.268;2022-12-07T05:14:23;101774.94;;;7.11;68.36
76424;BME280;65257;52.104;4.268;2022-12-07T05:16:50;101764.09;;;7.14;67.43
76424;BME280;65257;52.104;4.268;2022-12-07T05:19:17;101770.91;;;7.15;68.16
76424;BME280;65257;52.104;4.268;2022-12-07T05:21:49;101772.97;;;7.07;68.95
76424;BME280;65257;52.104;4.268;2022-12-07T05:24:15;101778.84;;;7.06;70.06
76424;BME280;65257;52.104;4.268;2022-12-07T05:26:43;101774.63;;;7.07;69.12
76424;BME280;65257;52.104;4.268;2022-12-07T05:29:14;101777.38;;;7.10;68.38
76424;BME280;65257;52.104;4.268;2022-12-07T05:31:40;101775.63;;;7.09;73.77
76424;BME280;65257;52.104;4.268;2022-12-07T05:34:06;101778.94;;;7.08;74.13
76424;BME280;65257;52.104;4.268;2022-12-07T05:36:32;101782.28;;;7.07;75.89
76424;BME280;65257;52.104;4.268;2022-12-07T05:38:58;101783.94;;;7.06;76.21
76424;BME280;65257;52.104;4.268;2022-12-07T05:41:27;101786.78;;;6.98;73.43
76424;BME280;65257;52.104;4.268;2022-12-07T05:44:11;101783.28;;;6.96;73.74
76424;BME280;65257;52.104;4.268;2022-12-07T05:46:36;101782.38;;;6.95;72.13
76424;BME280;65257;52.104;4.268;2022-12-07T05:49:05;101788.34;;;6.96;72.36
76424;BME280;65257;52.104;4.268;2022-12-07T05:51:30;101791.94;;;6.86;71.90
76424;BME280;65257;52.104;4.268;2022-12-07T05:53:55;101782.78;;;6.88;69.20
76424;BME280;65257;52.104;4.268;2022-12-07T05:56:21;101787.75;;;6.86;69.57
76424;BME280;65257;52.104;4.268;2022-12-07T05:58:47;101787.75;;;6.86;70.61
76424;BME280;65257;52.104;4.268;2022-12-07T06:01:31;101781.88;;;6.87;69.15
76424;BME280;65257;52.104;4.268;2022-12-07T06:03:57;101780.31;;;6.89;68.59
76424;BME280;65257;52.104;4.268;2022-12-07T06:06:22;101776.19;;;6.91;67.32
76424;BME280;65257;52.104;4.268;2022-12-07T06:08:47;101779.53;;;6.90;69.55
76424;BME280;65257;52.104;4.268;2022-12-07T06:11:13;101783.47;;;6.85;71.33
76424;BME280;65257;52.104;4.268;2022-12-07T06:13:57;101779.13;;;6.84;73.18
76424;BME280;65257;52.104;4.268;2022-12-07T06:16:22;101779.13;;;6.84;72.52
76424;BME280;65257;52.104;4.268;2022-12-07T06:18:50;101770.75;;;6.85;68.01
76424;BME280;65257;52.104;4.268;2022-12-07T06:21:16;101783.34;;;6.84;69.17
76424;BME280;65257;52.104;4.268;2022-12-07T06:23:41;101777.38;;;6.83;71.02
76424;BME280;65257;52.104;4.268;2022-12-07T06:26:06;101778.25;;;6.84;71.27
76424;BME280;65257;52.104;4.268;2022-12-07T06:28:32;101772.09;;;6.80;72.42
76424;BME280;65257;52.104;4.268;2022-12-07T06:31:03;101774.03;;;6.71;72.04
76424;BME280;65257;52.104;4.268;2022-12-07T06:33:30;101779.13;;;6.71;68.52
76424;BME280;65257;52.104;4.268;2022-12-07T06:35:55;101783.44;;;6.72;71.49
76424;BME280;65257;52.104;4.268;2022-12-07T06:38:24;101782.25;;;6.67;73.36
76424;BME280;65257;52.104;4.268;2022-12-07T06:40:52;101775.69;;;6.71;71.25
76424;BME280;65257;52.104;4.268;2022-12-07T06:43:21;101777.19;;;6.80;70.08
76424;BME280;65257;52.104;4.268;2022-12-07T06:45:46;101791.09;;;6.85;73.71
76424;BME280;65257;52.104;4.268;2022-12-07T06:48:14;101786.69;;;6.83;73.12
76424;BME280;65257;52.104;4.268;2022-12-07T06:50:40;101788.00;;;6.78;74.52
76424;BME280;65257;52.104;4.268;2022-12-07T06:53:05;101784.03;;;6.81;72.78
76424;BME280;65257;52.104;4.268;2022-12-07T06:55:31;101792.63;;;6.83;72.49
76424;BME280;65257;52.104;4.268;2022-12-07T06:57:56;101803.69;;;6.84;74.67
76424;BME280;65257;52.104;4.268;2022-12-07T07:00:22;101793.41;;;6.69;76.81
76424;BME280;65257;52.104;4.268;2022-12-07T07:02:47;101787.53;;;6.57;78.57
76424;BME280;65257;52.104;4.268;2022-12-07T07:05:12;101785.06;;;6.59;77.33
76424;BME280;65257;52.104;4.268;2022-12-07T07:07:41;101794.09;;;6.67;75.94
76424;BME280;65257;52.104;4.268;2022-12-07T07:10:06;101791.06;;;6.72;75.46
76424;BME280;65257;52.104;4.268;2022-12-07T07:12:40;101794.66;;;6.76;69.90
76424;BME280;65257;52.104;4.268;2022-12-07T07:15:06;101787.16;;;6.77;73.15
76424;BME280;65257;52.104;4.268;2022-12-07T07:17:32;101787.94;;;6.89;74.20
76424;BME280;65257;52.104;4.268;2022-12-07T07:20:00;101794.31;;;6.83;78.87
76424;BME280;65257;52.104;4.268;2022-12-07T07:22:26;101791.25;;;6.75;78.59
76424;BME280;65257;52.104;4.268;2022-12-07T07:24:51;101801.59;;;6.65;77.29
76424;BME280;65257;52.104;4.268;2022-12-07T07:27:19;101799.44;;;6.58;77.71
76424;BME280;65257;52.104;4.268;2022-12-07T07:29:45;101800.53;;;6.62;77.24
76424;BME280;65257;52.104;4.268;2022-12-07T07:32:10;101797.19;;;6.63;74.81
76424;BME280;65257;52.104;4.268;2022-12-07T07:34:42;101796.72;;;6.68;74.57
76424;BME280;65257;52.104;4.268;2022-12-07T07:37:07;101796.34;;;6.62;74.35
76424;BME280;65257;52.104;4.268;2022-12-07T07:39:33;101795.31;;;6.60;74.50
76424;BME280;65257;52.104;4.268;2022-12-07T07:41:58;101793.59;;;6.59;75.27
76424;BME280;65257;52.104;4.268;2022-12-07T07:44:23;101800.22;;;6.57;73.29
76424;BME280;65257;52.104;4.268;2022-12-07T07:46:49;101799.44;;;6.58;73.33
76424;BME280;65257;52.104;4.268;2022-12-07T07:49:14;101794.13;;;6.55;73.48
76424;BME280;65257;52.104;4.268;2022-12-07T07:51:40;101784.66;;;6.53;69.77
76424;BME280;65257;52.104;4.268;2022-12-07T07:54:05;101786.91;;;6.48;69.41
76424;BME280;65257;52.104;4.268;2022-12-07T07:56:30;101790.41;;;6.50;70.68
76424;BME280;65257;52.104;4.268;2022-12-07T07:58:59;101788.88;;;6.52;71.57
76424;BME280;65257;52.104;4.268;2022-12-07T08:01:30;101791.81;;;6.58;72.03
76424;BME280;65257;52.104;4.268;2022-12-07T08:03:55;101798.25;;;6.53;72.04
76424;BME280;65257;52.104;4.268;2022-12-07T08:06:21;101795.50;;;6.50;71.77
76424;BME280;65257;52.104;4.268;2022-12-07T08:08:46;101799.81;;;6.51;72.72
76424;BME280;65257;52.104;4.268;2022-12-07T08:11:11;101805.19;;;6.56;73.86
76424;BME280;65257;52.104;4.268;2022-12-07T08:13:37;101802.00;;;6.71;74.28
76424;BME280;65257;52.104;4.268;2022-12-07T08:16:04;101793.94;;;7.03;73.94
76424;BME280;65257;52.104;4.268;2022-12-07T08:18:30;101783.44;;;7.25;69.48
76424;BME280;65257;52.104;4.268;2022-12-07T08:21:02;101784.56;;;7.69;67.81
76424;BME280;65257;52.104;4.268;2022-12-07T08:23:34;101796.63;;;7.58;65.91
76424;BME280;65257;52.104;4.268;2022-12-07T08:26:03;101784.66;;;7.57;66.77
76424;BME280;65257;52.104;4.268;2022-12-07T08:28:29;101786.47;;;7.73;66.70
76424;BME280;65257;52.104;4.268;2022-12-07T08:31:15;101786.47;;;7.73;64.95
76424;BME280;65257;52.104;4.268;2022-12-07T08:33:47;101789.50;;;7.40;66.60
76424;BME280;65257;52.104;4.268;2022-12-07T08:36:13;101788.53;;;7.38;66.56
76424;BME280;65257;52.104;4.268;2022-12-07T08:38:42;101794.47;;;7.92;66.06
76424;BME280;65257;52.104;4.268;2022-12-07T08:41:07;101794.03;;;8.55;64.53
76424;BME280;65257;52.104;4.268;2022-12-07T08:43:36;101790.75;;;8.43;66.02
76424;BME280;65257;52.104;4.268;2022-12-07T08:48:44;101797.44;;;8.41;69.15
76424;BME280;65257;52.104;4.268;2022-12-07T08:51:12;101805.38;;;7.90;69.11
76424;BME280;65257;52.104;4.268;2022-12-07T08:53:41;101807.50;;;7.56;70.72
76424;BME280;65257;52.104;4.268;2022-12-07T08:56:07;101806.72;;;7.44;70.13
76424;BME280;65257;52.104;4.268;2022-12-07T08:58:35;101800.28;;;7.36;72.42
76424;BME280;65257;52.104;4.268;2022-12-07T09:01:01;101807.72;;;7.33;72.13
76424;BME280;65257;52.104;4.268;2022-12-07T09:03:30;101799.59;;;7.25;72.05
76424;BME280;65257;52.104;4.268;2022-12-07T09:05:59;101801.25;;;7.12;71.38
76424;BME280;65257;52.104;4.268;2022-12-07T09:08:49;101796.16;;;7.12;70.79
76424;BME280;65257;52.104;4.268;2022-12-07T09:11:16;101793.41;;;7.22;69.67
76424;BME280;65257;52.104;4.268;2022-12-07T09:13:41;101790.19;;;7.24;69.89
76424;BME280;65257;52.104;4.268;2022-12-07T09:16:07;101795.97;;;7.35;68.56
76424;BME280;65257;52.104;4.268;2022-12-07T09:18:38;101788.09;;;8.27;64.43
76424;BME280;65257;52.104;4.268;2022-12-07T09:21:04;101794.38;;;8.61;63.19
76424;BME280;65257;52.104;4.268;2022-12-07T09:23:29;101792.78;;;8.63;61.56
76424;BME280;65257;52.104;4.268;2022-12-07T09:26:02;101798.06;;;9.40;60.92
76424;BME280;65257;52.104;4.268;2022-12-07T09:28:30;101783.81;;;10.39;57.00
76424;BME280;65257;52.104;4.268;2022-12-07T09:30:55;101785.97;;;11.17;54.03
76424;BME280;65257;52.104;4.268;2022-12-07T09:33:21;101777.38;;;11.69;53.22
76424;BME280;65257;52.104;4.268;2022-12-07T09:35:48;101785.59;;;11.27;53.87
76424;BME280;65257;52.104;4.268;2022-12-07T09:38:17;101785.50;;;11.43;55.16
76424;BME280;65257;52.104;4.268;2022-12-07T09:40:43;101789.69;;;11.23;56.87
76424;BME280;65257;52.104;4.268;2022-12-07T09:43:19;101775.66;;;12.07;55.25
76424;BME280;65257;52.104;4.268;2022-12-07T09:45:47;101783.19;;;11.67;55.92
76424;BME280;65257;52.104;4.268;2022-12-07T09:48:34;101775.34;;;11.09;54.93
76424;BME280;65257;52.104;4.268;2022-12-07T09:51:02;101778.25;;;11.52;53.09
76424;BME280;65257;52.104;4.268;2022-12-07T09:53:37;101788.50;;;11.52;54.66
76424;BME280;65257;52.104;4.268;2022-12-07T09:56:04;101784.06;;;10.61;58.82
76424;BME280;65257;52.104;4.268;2022-12-07T09:58:30;101786.19;;;11.04;56.18
76424;BME280;65257;52.104;4.268;2022-12-07T10:00:59;101779.19;;;10.84;56.18
76424;BME280;65257;52.104;4.268;2022-12-07T10:03:28;101785.59;;;10.24;57.33
76424;BME280;65257;52.104;4.268;2022-12-07T10:05:54;101786.34;;;9.75;59.53
76424;BME280;65257;52.104;4.268;2022-12-07T10:08:25;101778.97;;;10.45;57.80
76424;BME280;65257;52.104;4.268;2022-12-07T10:11:01;101776.63;;;10.84;56.16
76424;BME280;65257;52.104;4.268;2022-12-07T10:13:40;101773.88;;;11.32;54.65
76424;BME280;65257;52.104;4.268;2022-12-07T10:16:06;101774.81;;;11.88;54.10
76424;BME280;65257;52.104;4.268;2022-12-07T10:18:38;101769.97;;;11.58;54.80
76424;BME280;65257;52.104;4.268;2022-12-07T10:23:29;101778.63;;;11.07;56.08
76424;BME280;65257;52.104;4.268;2022-12-07T10:25:57;101775.50;;;10.11;58.63
76424;BME280;65257;52.104;4.268;2022-12-07T10:28:22;101776.44;;;9.81;60.31
76424;BME280;65257;52.104;4.268;2022-12-07T10:31:19;101772.88;;;9.47;61.90
76424;BME280;65257;52.104;4.268;2022-12-07T10:33:53;101770.34;;;9.01;63.32
76424;BME280;65257;52.104;4.268;2022-12-07T10:36:25;101777.66;;;8.95;63.64
76424;BME280;65257;52.104;4.268;2022-12-07T10:39:01;101766.56;;;8.95;64.51
76424;BME280;65257;52.104;4.268;2022-12-07T10:41:28;101760.47;;;9.07;64.78
76424;BME280;65257;52.104;4.268;2022-12-07T10:43:57;101755.03;;;9.01;63.46
76424;BME280;65257;52.104;4.268;2022-12-07T10:55:41;101744.59;;;8.67;64.46
76424;BME280;65257;52.104;4.268;2022-12-07T10:58:45;101740.75;;;9.05;64.09
76424;BME280;65257;52.104;4.268;2022-12-07T11:06:46;101737.59;;;8.21;71.80
76424;BME280;65257;52.104;4.268;2022-12-07T11:15:03;101758.94;;;6.48;80.14
76424;BME280;65257;52.104;4.268;2022-12-07T11:17:59;101755.03;;;6.53;81.90
76424;BME280;65257;52.104;4.268;2022-12-07T11:24:01;101748.59;;;6.58;81.38
76424;BME280;65257;52.104;4.268;2022-12-07T11:37:39;101718.09;;;7.11;72.42
76424;BME280;65257;52.104;4.268;2022-12-07T11:40:26;101719.59;;;7.35;71.69
76424;BME280;65257;52.104;4.268;2022-12-07T11:43:02;101724.25;;;8.40;68.07
76424;BME280;65257;52.104;4.268;2022-12-07T11:45:37;101713.00;;;9.41;65.90
76424;BME280;65257;52.104;4.268;2022-12-07T11:48:21;101700.25;;;9.58;63.11
76424;BME280;65257;52.104;4.268;2022-12-07T11:50:54;101689.84;;;9.87;62.69
76424;BME280;65257;52.104;4.268;2022-12-07T11:53:30;101691.28;;;9.82;62.75
76424;BME280;65257;52.104;4.268;2022-12-07T11:56:01;101699.13;;;9.36;64.02
76424;BME280;65257;52.104;4.268;2022-12-07T12:03:48;101683.59;;;8.87;64.46
76424;BME280;65257;52.104;4.268;2022-12-07T12:06:18;101683.06;;;8.92;64.65
76424;BME280;65257;52.104;4.268;2022-12-07T12:21:12;101663.72;;;10.95;56.19
76424;BME280;65257;52.104;4.268;2022-12-07T12:23:41;101666.47;;;11.73;53.82
76424;BME280;65257;52.104;4.268;2022-12-07T12:26:16;101664.25;;;11.44;54.30
76424;BME280;65257;52.104;4.268;2022-12-07T12:28:53;101655.81;;;10.38;59.04
76424;BME280;65257;52.104;4.268;2022-12-07T12:33:59;101660.03;;;8.76;67.14
76424;BME280;65257;52.104;4.268;2022-12-07T12:36:46;101656.31;;;8.55;68.73
76424;BME280;65257;52.104;4.268;2022-12-07T12:39:16;101662.09;;;8.08;69.96
76424;BME280;65257;52.104;4.268;2022-12-07T12:46:57;101677.13;;;6.93;71.50
76424;BME280;65257;52.104;4.268;2022-12-07T12:51:59;101675.47;;;6.54;75.22
76424;BME280;65257;52.104;4.268;2022-12-07T12:57:09;101660.31;;;6.56;76.35
76424;BME280;65257;52.104;4.268;2022-12-07T13:05:17;101640.66;;;7.48;73.39
76424;BME280;65257;52.104;4.268;2022-12-07T13:07:54;101640.97;;;7.67;72.94
76424;BME280;65257;52.104;4.268;2022-12-07T13:10:31;101633.50;;;7.42;71.52
76424;BME280;65257;52.104;4.268;2022-12-07T13:17:59;101620.13;;;7.04;71.44
76424;BME280;65257;52.104;4.268;2022-12-07T13:23:10;101603.03;;;8.30;68.46
76424;BME280;65257;52.104;4.268;2022-12-07T13:25:51;101603.81;;;8.44;66.61
76424;BME280;65257;52.104;4.268;2022-12-07T13:28:20;101596.69;;;8.09;69.04
76424;BME280;65257;52.104;4.268;2022-12-07T13:31:04;101602.75;;;7.96;69.46
76424;BME280;65257;52.104;4.268;2022-12-07T13:33:36;101606.44;;;8.01;70.18
76424;BME280;65257;52.104;4.268;2022-12-07T13:36:03;101612.00;;;8.09;70.15
76424;BME280;65257;52.104;4.268;2022-12-07T13:38:31;101612.50;;;7.60;73.73
76424;BME280;65257;52.104;4.268;2022-12-07T13:44:14;101602.88;;;7.41;73.74
76424;BME280;65257;52.104;4.268;2022-12-07T13:49:26;101592.13;;;7.32;75.71
76424;BME280;65257;52.104;4.268;2022-12-07T13:51:52;101583.16;;;7.37;73.67
76424;BME280;65257;52.104;4.268;2022-12-07T13:54:19;101586.03;;;7.43;74.74
76424;BME280;65257;52.104;4.268;2022-12-07T13:56:48;101579.53;;;7.48;71.24
76424;BME280;65257;52.104;4.268;2022-12-07T13:59:18;101582.53;;;7.41;70.75
76424;BME280;65257;52.104;4.268;2022-12-07T14:01:46;101579.53;;;7.48;69.83
76424;BME280;65257;52.104;4.268;2022-12-07T14:04:29;101576.91;;;7.46;69.28
76424;BME280;65257;52.104;4.268;2022-12-07T14:06:55;101577.88;;;7.63;69.31
76424;BME280;65257;52.104;4.268;2022-12-07T14:09:25;101572.88;;;7.50;70.76
76424;BME280;65257;52.104;4.268;2022-12-07T14:11:54;101565.97;;;7.62;71.23
76424;BME280;65257;52.104;4.268;2022-12-07T14:14:23;101560.94;;;7.49;71.55
76424;BME280;65257;52.104;4.268;2022-12-07T14:17:20;101563.03;;;7.41;71.23
76424;BME280;65257;52.104;4.268;2022-12-07T14:19:58;101554.59;;;7.42;71.75
76424;BME280;65257;52.104;4.268;2022-12-07T14:22:38;101552.94;;;7.43;73.36
76424;BME280;65257;52.104;4.268;2022-12-07T14:25:25;101547.41;;;7.50;72.65
76424;BME280;65257;52.104;4.268;2022-12-07T14:28:00;101548.66;;;7.56;73.13
76424;BME280;65257;52.104;4.268;2022-12-07T14:30:30;101537.91;;;7.33;72.87
76424;BME280;65257;52.104;4.268;2022-12-07T14:33:02;101545.78;;;7.23;70.57
76424;BME280;65257;52.104;4.268;2022-12-07T14:35:29;101533.31;;;7.13;70.10
76424;BME280;65257;52.104;4.268;2022-12-07T14:37:55;101537.44;;;7.11;69.41
76424;BME280;65257;52.104;4.268;2022-12-07T14:40:25;101534.72;;;7.08;70.13
76424;BME280;65257;52.104;4.268;2022-12-07T14:43:04;101523.38;;;7.03;70.93
76424;BME280;65257;52.104;4.268;2022-12-07T14:45:30;101536.63;;;7.12;72.99
76424;BME280;65257;52.104;4.268;2022-12-07T14:47:55;101523.13;;;7.13;71.16
76424;BME280;65257;52.104;4.268;2022-12-07T14:50:21;101523.50;;;7.19;72.47
76424;BME280;65257;52.104;4.268;2022-12-07T14:52:53;101534.66;;;7.21;66.97
76424;BME280;65257;52.104;4.268;2022-12-07T14:55:30;101532.31;;;7.38;66.61
76424;BME280;65257;52.104;4.268;2022-12-07T14:57:57;101537.84;;;7.31;68.61
76424;BME280;65257;52.104;4.268;2022-12-07T15:00:25;101528.00;;;7.37;66.77
76424;BME280;65257;52.104;4.268;2022-12-07T15:03:11;101527.03;;;7.35;64.05
76424;BME280;65257;52.104;4.268;2022-12-07T15:05:38;101523.34;;;7.30;64.11
76424;BME280;65257;52.104;4.268;2022-12-07T15:08:04;101519.31;;;7.34;67.55
76424;BME280;65257;52.104;4.268;2022-12-07T15:10:50;101518.25;;;7.16;69.98